Aloha, Oregon
Current Conditions -  °F | °C
As of 7:53 PM on Friday 24 Oct 2014 (Local Time) from KHIO Reporting Station
Scattered Clouds Scattered Clouds  
Wind Chill: 11°   Ceiling: Unl
Heat Index: 11°   Visibility: 10mi
Dew Point: 11°   Wind: 3mph
Humidity: 100%   Direction: 280°W
Pressure: 29.77"   Gusts: NA
Location:  45.49°N, 122.86°W
Report Text: KHIO 250253Z 28003KT 10SM FEW036 SCT050 11/11 A2977 RMK AO2 SLP080 P0001 60007 T01060106 58018
Loading
Personal Weather Stations






























Interactive Weather Map
Tropical Storm Tracking
New forecast layout! Learn more

10-Day Weather Forecast

Advertisements
Track Severe Weather on mobile